sensor_id;sensor_type;location;lat;lon;timestamp;temperature;humidity
68235;DHT22;55052;52.056;5.296;2022-10-24T00:01:15;17.20;84.20
68235;DHT22;55052;52.056;5.296;2022-10-24T00:03:43;17.20;84.20
68235;DHT22;55052;52.056;5.296;2022-10-24T00:06:11;17.20;84.20
68235;DHT22;55052;52.056;5.296;2022-10-24T00:08:40;17.20;84.30
68235;DHT22;55052;52.056;5.296;2022-10-24T00:11:18;17.30;84.20
68235;DHT22;55052;52.056;5.296;2022-10-24T00:13:45;17.30;84.10
68235;DHT22;55052;52.056;5.296;2022-10-24T00:16:12;17.30;84.10
68235;DHT22;55052;52.056;5.296;2022-10-24T00:18:39;17.30;84.20
68235;DHT22;55052;52.056;5.296;2022-10-24T00:21:06;17.30;84.10
68235;DHT22;55052;52.056;5.296;2022-10-24T00:23:33;17.30;84.10
68235;DHT22;55052;52.056;5.296;2022-10-24T00:26:00;17.30;84.10
68235;DHT22;55052;52.056;5.296;2022-10-24T00:28:29;17.30;84.00
68235;DHT22;55052;52.056;5.296;2022-10-24T00:30:56;17.30;84.00
68235;DHT22;55052;52.056;5.296;2022-10-24T00:33:23;17.30;84.00
68235;DHT22;55052;52.056;5.296;2022-10-24T00:35:50;17.30;83.90
68235;DHT22;55052;52.056;5.296;2022-10-24T00:38:17;17.30;83.90
68235;DHT22;55052;52.056;5.296;2022-10-24T00:40:44;17.30;83.80
68235;DHT22;55052;52.056;5.296;2022-10-24T00:43:21;17.30;83.70
68235;DHT22;55052;52.056;5.296;2022-10-24T00:45:56;17.30;83.60
68235;DHT22;55052;52.056;5.296;2022-10-24T00:48:48;17.20;83.60
68235;DHT22;55052;52.056;5.296;2022-10-24T00:51:23;17.30;83.40
68235;DHT22;55052;52.056;5.296;2022-10-24T00:53:56;17.20;83.40
68235;DHT22;55052;52.056;5.296;2022-10-24T00:56:36;17.20;83.30
68235;DHT22;55052;52.056;5.296;2022-10-24T00:59:06;17.20;83.30
68235;DHT22;55052;52.056;5.296;2022-10-24T01:01:34;17.30;83.20
68235;DHT22;55052;52.056;5.296;2022-10-24T01:04:01;17.30;83.00
68235;DHT22;55052;52.056;5.296;2022-10-24T01:11:52;17.30;82.50
68235;DHT22;55052;52.056;5.296;2022-10-24T01:28:31;17.30;81.20
68235;DHT22;55052;52.056;5.296;2022-10-24T01:31:09;17.30;81.30
68235;DHT22;55052;52.056;5.296;2022-10-24T01:33:45;17.30;81.10
68235;DHT22;55052;52.056;5.296;2022-10-24T01:36:30;17.30;80.90
68235;DHT22;55052;52.056;5.296;2022-10-24T01:39:01;17.40;80.50
68235;DHT22;55052;52.056;5.296;2022-10-24T01:41:30;17.40;80.50
68235;DHT22;55052;52.056;5.296;2022-10-24T01:46:41;17.40;80.20
68235;DHT22;55052;52.056;5.296;2022-10-24T01:49:16;17.40;80.00
68235;DHT22;55052;52.056;5.296;2022-10-24T01:51:44;17.40;80.40
68235;DHT22;55052;52.056;5.296;2022-10-24T01:54:12;17.30;79.50
68235;DHT22;55052;52.056;5.296;2022-10-24T01:56:40;17.40;79.40
68235;DHT22;55052;52.056;5.296;2022-10-24T02:02:02;17.30;79.00
68235;DHT22;55052;52.056;5.296;2022-10-24T02:04:31;17.30;79.00
68235;DHT22;55052;52.056;5.296;2022-10-24T02:07:01;17.40;78.90
68235;DHT22;55052;52.056;5.296;2022-10-24T02:09:29;17.40;78.60
68235;DHT22;55052;52.056;5.296;2022-10-24T02:11:59;17.40;78.40
68235;DHT22;55052;52.056;5.296;2022-10-24T02:14:35;17.40;78.40
68235;DHT22;55052;52.056;5.296;2022-10-24T02:17:04;17.40;78.30
68235;DHT22;55052;52.056;5.296;2022-10-24T02:19:31;17.40;78.10
68235;DHT22;55052;52.056;5.296;2022-10-24T02:22:18;17.40;77.90
68235;DHT22;55052;52.056;5.296;2022-10-24T02:27:34;17.40;77.70
68235;DHT22;55052;52.056;5.296;2022-10-24T02:30:10;17.40;77.00
68235;DHT22;55052;52.056;5.296;2022-10-24T02:32:43;17.40;77.10
68235;DHT22;55052;52.056;5.296;2022-10-24T02:35:13;17.40;76.90
68235;DHT22;55052;52.056;5.296;2022-10-24T02:37:53;17.30;76.90
68235;DHT22;55052;52.056;5.296;2022-10-24T02:40:21;17.30;76.40
68235;DHT22;55052;52.056;5.296;2022-10-24T02:42:51;17.30;76.40
68235;DHT22;55052;52.056;5.296;2022-10-24T02:45:21;17.30;76.50
68235;DHT22;55052;52.056;5.296;2022-10-24T02:47:50;17.30;76.40
68235;DHT22;55052;52.056;5.296;2022-10-24T02:50:18;17.30;76.20
68235;DHT22;55052;52.056;5.296;2022-10-24T02:52:45;17.30;76.90
68235;DHT22;55052;52.056;5.296;2022-10-24T02:55:12;17.30;76.00
68235;DHT22;55052;52.056;5.296;2022-10-24T02:57:39;17.30;75.90
68235;DHT22;55052;52.056;5.296;2022-10-24T03:00:06;17.20;75.70
68235;DHT22;55052;52.056;5.296;2022-10-24T03:02:33;17.20;75.70
68235;DHT22;55052;52.056;5.296;2022-10-24T03:05:00;17.20;75.50
68235;DHT22;55052;52.056;5.296;2022-10-24T03:07:27;17.20;75.40
68235;DHT22;55052;52.056;5.296;2022-10-24T03:09:53;17.20;75.50
68235;DHT22;55052;52.056;5.296;2022-10-24T03:12:20;17.20;75.50
68235;DHT22;55052;52.056;5.296;2022-10-24T03:14:48;17.20;75.40
68235;DHT22;55052;52.056;5.296;2022-10-24T03:17:15;17.20;75.30
68235;DHT22;55052;52.056;5.296;2022-10-24T03:19:42;17.20;75.20
68235;DHT22;55052;52.056;5.296;2022-10-24T03:22:10;17.20;75.00
68235;DHT22;55052;52.056;5.296;2022-10-24T03:24:37;17.20;75.00
68235;DHT22;55052;52.056;5.296;2022-10-24T03:27:20;17.20;74.80
68235;DHT22;55052;52.056;5.296;2022-10-24T03:29:47;17.20;74.80
68235;DHT22;55052;52.056;5.296;2022-10-24T03:32:13;17.20;74.80
68235;DHT22;55052;52.056;5.296;2022-10-24T03:34:40;17.10;75.00
68235;DHT22;55052;52.056;5.296;2022-10-24T03:37:07;17.10;74.50
68235;DHT22;55052;52.056;5.296;2022-10-24T03:39:34;17.10;74.50
68235;DHT22;55052;52.056;5.296;2022-10-24T03:42:00;17.10;74.50
68235;DHT22;55052;52.056;5.296;2022-10-24T03:44:27;17.10;74.40
68235;DHT22;55052;52.056;5.296;2022-10-24T03:46:54;17.10;74.20
68235;DHT22;55052;52.056;5.296;2022-10-24T03:49:21;17.10;74.10
68235;DHT22;55052;52.056;5.296;2022-10-24T03:51:47;17.10;73.80
68235;DHT22;55052;52.056;5.296;2022-10-24T03:54:14;17.10;73.60
68235;DHT22;55052;52.056;5.296;2022-10-24T03:56:42;17.10;73.60
68235;DHT22;55052;52.056;5.296;2022-10-24T03:59:09;17.20;73.90
68235;DHT22;55052;52.056;5.296;2022-10-24T04:01:36;17.20;73.60
68235;DHT22;55052;52.056;5.296;2022-10-24T04:04:03;17.20;73.50
68235;DHT22;55052;52.056;5.296;2022-10-24T04:06:29;17.20;73.40
68235;DHT22;55052;52.056;5.296;2022-10-24T04:09:02;17.20;73.30
68235;DHT22;55052;52.056;5.296;2022-10-24T04:11:29;17.20;73.30
68235;DHT22;55052;52.056;5.296;2022-10-24T04:13:56;17.20;73.10
68235;DHT22;55052;52.056;5.296;2022-10-24T04:16:23;17.20;73.10
68235;DHT22;55052;52.056;5.296;2022-10-24T04:18:50;17.20;73.10
68235;DHT22;55052;52.056;5.296;2022-10-24T04:21:17;17.20;73.20
68235;DHT22;55052;52.056;5.296;2022-10-24T04:23:47;17.20;73.30
68235;DHT22;55052;52.056;5.296;2022-10-24T04:26:15;17.20;73.10
68235;DHT22;55052;52.056;5.296;2022-10-24T04:28:43;17.20;73.30
68235;DHT22;55052;52.056;5.296;2022-10-24T04:31:12;17.20;73.30
68235;DHT22;55052;52.056;5.296;2022-10-24T04:33:43;17.20;73.20
68235;DHT22;55052;52.056;5.296;2022-10-24T04:36:10;17.20;73.30
68235;DHT22;55052;52.056;5.296;2022-10-24T04:38:37;17.20;73.10
68235;DHT22;55052;52.056;5.296;2022-10-24T04:41:04;17.20;73.20
68235;DHT22;55052;52.056;5.296;2022-10-24T04:43:35;17.20;73.10
68235;DHT22;55052;52.056;5.296;2022-10-24T04:46:02;17.20;73.00
68235;DHT22;55052;52.056;5.296;2022-10-24T04:48:28;17.20;73.00
68235;DHT22;55052;52.056;5.296;2022-10-24T04:50:55;17.20;72.90
68235;DHT22;55052;52.056;5.296;2022-10-24T04:53:22;17.20;72.90
68235;DHT22;55052;52.056;5.296;2022-10-24T04:55:49;17.20;73.00
68235;DHT22;55052;52.056;5.296;2022-10-24T04:58:16;17.20;72.90
68235;DHT22;55052;52.056;5.296;2022-10-24T05:00:43;17.30;73.10
68235;DHT22;55052;52.056;5.296;2022-10-24T05:03:12;17.30;73.10
68235;DHT22;55052;52.056;5.296;2022-10-24T05:05:39;17.30;73.20
68235;DHT22;55052;52.056;5.296;2022-10-24T05:08:06;17.30;73.20
68235;DHT22;55052;52.056;5.296;2022-10-24T05:10:33;17.30;73.30
68235;DHT22;55052;52.056;5.296;2022-10-24T05:12:59;17.30;73.20
68235;DHT22;55052;52.056;5.296;2022-10-24T05:15:26;17.30;73.00
68235;DHT22;55052;52.056;5.296;2022-10-24T05:17:58;17.30;73.20
68235;DHT22;55052;52.056;5.296;2022-10-24T05:20:25;17.30;73.00
68235;DHT22;55052;52.056;5.296;2022-10-24T05:22:52;17.30;73.00
68235;DHT22;55052;52.056;5.296;2022-10-24T05:25:19;17.30;73.00
68235;DHT22;55052;52.056;5.296;2022-10-24T05:27:46;17.30;72.70
68235;DHT22;55052;52.056;5.296;2022-10-24T05:30:13;17.30;73.60
68235;DHT22;55052;52.056;5.296;2022-10-24T05:32:40;17.30;72.70
68235;DHT22;55052;52.056;5.296;2022-10-24T05:35:08;17.30;72.50
68235;DHT22;55052;52.056;5.296;2022-10-24T05:37:35;17.30;72.60
68235;DHT22;55052;52.056;5.296;2022-10-24T05:40:02;17.40;72.70
68235;DHT22;55052;52.056;5.296;2022-10-24T05:42:29;17.40;72.70
68235;DHT22;55052;52.056;5.296;2022-10-24T05:44:55;17.40;72.60
68235;DHT22;55052;52.056;5.296;2022-10-24T05:47:22;17.40;72.50
68235;DHT22;55052;52.056;5.296;2022-10-24T05:49:53;17.40;72.50
68235;DHT22;55052;52.056;5.296;2022-10-24T05:52:20;17.40;72.50
68235;DHT22;55052;52.056;5.296;2022-10-24T05:54:47;17.40;72.70
68235;DHT22;55052;52.056;5.296;2022-10-24T05:57:32;17.40;72.70
68235;DHT22;55052;52.056;5.296;2022-10-24T05:59:58;17.40;72.50
68235;DHT22;55052;52.056;5.296;2022-10-24T06:02:26;17.40;72.60
68235;DHT22;55052;52.056;5.296;2022-10-24T06:04:53;17.40;72.50
68235;DHT22;55052;52.056;5.296;2022-10-24T06:07:21;17.40;72.50
68235;DHT22;55052;52.056;5.296;2022-10-24T06:09:48;17.40;72.30
68235;DHT22;55052;52.056;5.296;2022-10-24T06:12:15;17.30;72.30
68235;DHT22;55052;52.056;5.296;2022-10-24T06:14:42;17.30;72.30
68235;DHT22;55052;52.056;5.296;2022-10-24T06:17:10;17.30;72.30
68235;DHT22;55052;52.056;5.296;2022-10-24T06:19:38;17.30;72.50
68235;DHT22;55052;52.056;5.296;2022-10-24T06:22:07;17.30;72.40
68235;DHT22;55052;52.056;5.296;2022-10-24T06:24:35;17.30;72.70
68235;DHT22;55052;52.056;5.296;2022-10-24T06:27:02;17.30;72.70
68235;DHT22;55052;52.056;5.296;2022-10-24T06:29:29;17.30;72.70
68235;DHT22;55052;52.056;5.296;2022-10-24T06:31:56;17.30;72.80
68235;DHT22;55052;52.056;5.296;2022-10-24T06:34:23;17.30;72.80
68235;DHT22;55052;52.056;5.296;2022-10-24T06:36:50;17.30;72.80
68235;DHT22;55052;52.056;5.296;2022-10-24T06:39:17;17.40;72.70
68235;DHT22;55052;52.056;5.296;2022-10-24T06:41:43;17.40;72.60
68235;DHT22;55052;52.056;5.296;2022-10-24T06:44:10;17.40;72.60
68235;DHT22;55052;52.056;5.296;2022-10-24T06:46:37;17.40;72.50
68235;DHT22;55052;52.056;5.296;2022-10-24T06:49:04;17.40;72.50
68235;DHT22;55052;52.056;5.296;2022-10-24T06:51:31;17.40;72.30
68235;DHT22;55052;52.056;5.296;2022-10-24T06:53:58;17.40;72.30
68235;DHT22;55052;52.056;5.296;2022-10-24T06:56:25;17.50;72.60
68235;DHT22;55052;52.056;5.296;2022-10-24T06:58:52;17.50;72.50
68235;DHT22;55052;52.056;5.296;2022-10-24T07:01:21;17.40;72.10
68235;DHT22;55052;52.056;5.296;2022-10-24T07:03:48;17.40;72.20
68235;DHT22;55052;52.056;5.296;2022-10-24T07:06:19;17.50;72.30
68235;DHT22;55052;52.056;5.296;2022-10-24T07:08:51;17.50;72.30
68235;DHT22;55052;52.056;5.296;2022-10-24T07:11:18;17.50;72.50
68235;DHT22;55052;52.056;5.296;2022-10-24T07:13:45;17.40;72.50
68235;DHT22;55052;52.056;5.296;2022-10-24T07:16:12;17.50;72.30
68235;DHT22;55052;52.056;5.296;2022-10-24T07:18:39;17.40;72.20
68235;DHT22;55052;52.056;5.296;2022-10-24T07:21:16;17.50;72.30
68235;DHT22;55052;52.056;5.296;2022-10-24T07:23:44;17.50;72.40
68235;DHT22;55052;52.056;5.296;2022-10-24T07:26:12;17.50;72.50
68235;DHT22;55052;52.056;5.296;2022-10-24T07:28:43;17.50;72.50
68235;DHT22;55052;52.056;5.296;2022-10-24T07:31:15;17.50;72.50
68235;DHT22;55052;52.056;5.296;2022-10-24T07:33:42;17.50;72.40
68235;DHT22;55052;52.056;5.296;2022-10-24T07:36:09;17.50;72.50
68235;DHT22;55052;52.056;5.296;2022-10-24T07:38:36;17.60;72.60
68235;DHT22;55052;52.056;5.296;2022-10-24T07:41:04;17.60;72.60
68235;DHT22;55052;52.056;5.296;2022-10-24T07:43:31;17.60;72.60
68235;DHT22;55052;52.056;5.296;2022-10-24T07:45:58;17.60;72.70
68235;DHT22;55052;52.056;5.296;2022-10-24T07:48:28;17.60;72.70
68235;DHT22;55052;52.056;5.296;2022-10-24T07:50:54;17.60;72.70
68235;DHT22;55052;52.056;5.296;2022-10-24T07:53:21;17.60;72.70
68235;DHT22;55052;52.056;5.296;2022-10-24T07:55:48;17.60;72.70
68235;DHT22;55052;52.056;5.296;2022-10-24T07:58:15;17.70;72.80
68235;DHT22;55052;52.056;5.296;2022-10-24T08:00:41;17.70;72.70
68235;DHT22;55052;52.056;5.296;2022-10-24T08:03:11;17.70;72.30
68235;DHT22;55052;52.056;5.296;2022-10-24T08:05:41;17.70;72.30
68235;DHT22;55052;52.056;5.296;2022-10-24T08:08:08;17.70;73.10
68235;DHT22;55052;52.056;5.296;2022-10-24T08:10:55;17.70;71.90
68235;DHT22;55052;52.056;5.296;2022-10-24T08:13:21;17.70;72.40
68235;DHT22;55052;52.056;5.296;2022-10-24T08:15:48;17.70;72.30
68235;DHT22;55052;52.056;5.296;2022-10-24T08:18:15;17.70;72.30
68235;DHT22;55052;52.056;5.296;2022-10-24T08:20:42;17.70;72.20
68235;DHT22;55052;52.056;5.296;2022-10-24T08:23:08;17.70;72.20
68235;DHT22;55052;52.056;5.296;2022-10-24T08:25:39;17.70;72.20
68235;DHT22;55052;52.056;5.296;2022-10-24T08:28:06;17.70;72.10
68235;DHT22;55052;52.056;5.296;2022-10-24T08:30:34;17.70;72.30
68235;DHT22;55052;52.056;5.296;2022-10-24T08:33:01;17.70;72.50
68235;DHT22;55052;52.056;5.296;2022-10-24T08:35:28;17.70;72.40
68235;DHT22;55052;52.056;5.296;2022-10-24T08:37:55;17.70;72.50
68235;DHT22;55052;52.056;5.296;2022-10-24T08:40:21;17.70;72.60
68235;DHT22;55052;52.056;5.296;2022-10-24T08:42:48;17.70;72.40
68235;DHT22;55052;52.056;5.296;2022-10-24T08:45:28;17.70;72.30
68235;DHT22;55052;52.056;5.296;2022-10-24T08:48:08;17.70;72.10
68235;DHT22;55052;52.056;5.296;2022-10-24T08:50:35;17.70;71.90
68235;DHT22;55052;52.056;5.296;2022-10-24T08:53:23;17.70;72.00
68235;DHT22;55052;52.056;5.296;2022-10-24T08:55:53;17.80;71.80
68235;DHT22;55052;52.056;5.296;2022-10-24T08:58:25;17.70;71.70
68235;DHT22;55052;52.056;5.296;2022-10-24T09:00:55;17.80;71.90
68235;DHT22;55052;52.056;5.296;2022-10-24T09:06:24;17.80;71.80
68235;DHT22;55052;52.056;5.296;2022-10-24T09:08:54;17.80;71.70
68235;DHT22;55052;52.056;5.296;2022-10-24T09:11:42;17.80;71.50
68235;DHT22;55052;52.056;5.296;2022-10-24T09:14:18;17.80;71.30
68235;DHT22;55052;52.056;5.296;2022-10-24T09:17:31;17.80;71.20
68235;DHT22;55052;52.056;5.296;2022-10-24T09:19:38;17.80;71.10
68235;DHT22;55052;52.056;5.296;2022-10-24T09:22:06;17.90;71.10
68235;DHT22;55052;52.056;5.296;2022-10-24T09:24:38;17.80;70.70
68235;DHT22;55052;52.056;5.296;2022-10-24T09:27:14;17.80;70.70
68235;DHT22;55052;52.056;5.296;2022-10-24T09:29:42;17.80;70.80
68235;DHT22;55052;52.056;5.296;2022-10-24T09:32:18;17.80;70.80
68235;DHT22;55052;52.056;5.296;2022-10-24T09:34:45;17.80;70.70
68235;DHT22;55052;52.056;5.296;2022-10-24T09:37:32;17.80;71.00
68235;DHT22;55052;52.056;5.296;2022-10-24T09:40:31;17.80;70.80
68235;DHT22;55052;52.056;5.296;2022-10-24T09:43:14;17.80;71.10
68235;DHT22;55052;52.056;5.296;2022-10-24T09:45:49;17.80;71.40
68235;DHT22;55052;52.056;5.296;2022-10-24T09:48:21;17.70;71.80
68235;DHT22;55052;52.056;5.296;2022-10-24T09:50:55;17.70;71.90
68235;DHT22;55052;52.056;5.296;2022-10-24T09:53:34;17.70;72.30
68235;DHT22;55052;52.056;5.296;2022-10-24T09:56:13;17.70;73.00
68235;DHT22;55052;52.056;5.296;2022-10-24T09:58:41;17.60;73.80
68235;DHT22;55052;52.056;5.296;2022-10-24T10:03:41;17.60;74.10
68235;DHT22;55052;52.056;5.296;2022-10-24T10:06:19;17.60;74.10
68235;DHT22;55052;52.056;5.296;2022-10-24T10:08:53;17.60;74.20
68235;DHT22;55052;52.056;5.296;2022-10-24T10:11:31;17.50;74.20
68235;DHT22;55052;52.056;5.296;2022-10-24T10:14:03;17.50;74.20
68235;DHT22;55052;52.056;5.296;2022-10-24T10:16:41;17.50;74.20
68235;DHT22;55052;52.056;5.296;2022-10-24T10:19:16;17.50;74.10
68235;DHT22;55052;52.056;5.296;2022-10-24T10:22:05;17.50;74.10
68235;DHT22;55052;52.056;5.296;2022-10-24T10:24:41;17.50;74.10
68235;DHT22;55052;52.056;5.296;2022-10-24T10:27:38;17.50;73.80
68235;DHT22;55052;52.056;5.296;2022-10-24T10:32:53;17.50;73.90
68235;DHT22;55052;52.056;5.296;2022-10-24T10:35:31;17.60;73.70
68235;DHT22;55052;52.056;5.296;2022-10-24T10:40:39;17.70;73.80
68235;DHT22;55052;52.056;5.296;2022-10-24T10:49:11;17.80;73.50
68235;DHT22;55052;52.056;5.296;2022-10-24T10:56:37;17.90;73.40
68235;DHT22;55052;52.056;5.296;2022-10-24T11:07:38;17.90;72.60
68235;DHT22;55052;52.056;5.296;2022-10-24T11:10:10;17.90;72.50
68235;DHT22;55052;52.056;5.296;2022-10-24T11:12:41;17.90;72.40
68235;DHT22;55052;52.056;5.296;2022-10-24T11:15:25;18.00;72.70
68235;DHT22;55052;52.056;5.296;2022-10-24T11:18:12;18.00;72.30
68235;DHT22;55052;52.056;5.296;2022-10-24T11:20:54;18.00;72.30
68235;DHT22;55052;52.056;5.296;2022-10-24T11:23:54;18.00;72.40
68235;DHT22;55052;52.056;5.296;2022-10-24T11:29:02;18.00;72.50
68235;DHT22;55052;52.056;5.296;2022-10-24T11:31:36;18.00;72.70
68235;DHT22;55052;52.056;5.296;2022-10-24T11:36:56;17.80;74.70
68235;DHT22;55052;52.056;5.296;2022-10-24T11:42:00;17.60;76.60
68235;DHT22;55052;52.056;5.296;2022-10-24T11:44:48;17.50;77.20
68235;DHT22;55052;52.056;5.296;2022-10-24T11:50:04;17.40;78.00
68235;DHT22;55052;52.056;5.296;2022-10-24T11:52:37;17.30;77.90
68235;DHT22;55052;52.056;5.296;2022-10-24T11:55:15;17.30;78.00
68235;DHT22;55052;52.056;5.296;2022-10-24T11:57:44;17.30;78.20
68235;DHT22;55052;52.056;5.296;2022-10-24T12:00:21;17.30;78.20
68235;DHT22;55052;52.056;5.296;2022-10-24T12:12:08;17.50;76.70
68235;DHT22;55052;52.056;5.296;2022-10-24T12:17:57;17.50;75.90
68235;DHT22;55052;52.056;5.296;2022-10-24T12:20:25;17.50;75.70
68235;DHT22;55052;52.056;5.296;2022-10-24T12:22:53;17.50;75.90
68235;DHT22;55052;52.056;5.296;2022-10-24T12:25:33;17.50;76.10
68235;DHT22;55052;52.056;5.296;2022-10-24T12:28:06;17.60;76.40
68235;DHT22;55052;52.056;5.296;2022-10-24T12:30:37;17.60;76.10
68235;DHT22;55052;52.056;5.296;2022-10-24T12:33:09;17.70;76.50
68235;DHT22;55052;52.056;5.296;2022-10-24T12:40:56;17.80;76.40
68235;DHT22;55052;52.056;5.296;2022-10-24T12:43:41;17.90;75.30
68235;DHT22;55052;52.056;5.296;2022-10-24T12:51:40;17.80;75.10
68235;DHT22;55052;52.056;5.296;2022-10-24T12:59:32;17.80;75.00
68235;DHT22;55052;52.056;5.296;2022-10-24T13:05:26;17.70;76.30
68235;DHT22;55052;52.056;5.296;2022-10-24T13:10:58;17.50;76.90
68235;DHT22;55052;52.056;5.296;2022-10-24T13:16:15;17.30;77.70
68235;DHT22;55052;52.056;5.296;2022-10-24T13:19:17;17.20;77.90
68235;DHT22;55052;52.056;5.296;2022-10-24T13:31:54;16.90;80.00
68235;DHT22;55052;52.056;5.296;2022-10-24T13:40:26;17.00;80.60
68235;DHT22;55052;52.056;5.296;2022-10-24T13:42:57;17.10;80.50
68235;DHT22;55052;52.056;5.296;2022-10-24T13:45:32;17.10;80.20
68235;DHT22;55052;52.056;5.296;2022-10-24T13:48:22;17.10;80.10
68235;DHT22;55052;52.056;5.296;2022-10-24T13:53:24;17.10;80.00
68235;DHT22;55052;52.056;5.296;2022-10-24T13:56:00;17.10;80.00
68235;DHT22;55052;52.056;5.296;2022-10-24T13:58:37;17.10;79.90
68235;DHT22;55052;52.056;5.296;2022-10-24T14:01:22;17.10;79.90
68235;DHT22;55052;52.056;5.296;2022-10-24T14:03:51;17.10;79.90
68235;DHT22;55052;52.056;5.296;2022-10-24T14:06:23;17.10;79.90
68235;DHT22;55052;52.056;5.296;2022-10-24T14:08:53;17.00;79.60
68235;DHT22;55052;52.056;5.296;2022-10-24T14:11:32;17.00;79.50
68235;DHT22;55052;52.056;5.296;2022-10-24T14:14:01;17.10;80.50
68235;DHT22;55052;52.056;5.296;2022-10-24T14:16:34;17.10;79.50
68235;DHT22;55052;52.056;5.296;2022-10-24T14:19:11;17.10;79.50
68235;DHT22;55052;52.056;5.296;2022-10-24T14:21:45;17.10;79.40
68235;DHT22;55052;52.056;5.296;2022-10-24T14:24:20;17.20;79.00
68235;DHT22;55052;52.056;5.296;2022-10-24T14:26:49;17.20;79.00
68235;DHT22;55052;52.056;5.296;2022-10-24T14:29:27;17.20;78.90
68235;DHT22;55052;52.056;5.296;2022-10-24T14:31:59;17.20;78.70
68235;DHT22;55052;52.056;5.296;2022-10-24T14:34:27;17.20;78.80
68235;DHT22;55052;52.056;5.296;2022-10-24T14:37:23;17.20;78.90
68235;DHT22;55052;52.056;5.296;2022-10-24T14:39:52;17.30;79.00
68235;DHT22;55052;52.056;5.296;2022-10-24T14:42:19;17.30;78.80
68235;DHT22;55052;52.056;5.296;2022-10-24T14:44:46;17.40;78.70
68235;DHT22;55052;52.056;5.296;2022-10-24T14:47:25;17.40;78.40
68235;DHT22;55052;52.056;5.296;2022-10-24T14:49:53;17.50;78.20
68235;DHT22;55052;52.056;5.296;2022-10-24T14:52:30;17.50;77.40
68235;DHT22;55052;52.056;5.296;2022-10-24T14:55:04;17.50;76.90
68235;DHT22;55052;52.056;5.296;2022-10-24T14:57:33;17.60;76.70
68235;DHT22;55052;52.056;5.296;2022-10-24T15:00:04;17.50;76.50
68235;DHT22;55052;52.056;5.296;2022-10-24T15:02:37;17.60;76.40
68235;DHT22;55052;52.056;5.296;2022-10-24T15:05:14;17.60;76.40
68235;DHT22;55052;52.056;5.296;2022-10-24T15:07:41;17.50;76.10
68235;DHT22;55052;52.056;5.296;2022-10-24T15:10:36;17.60;76.30
68235;DHT22;55052;52.056;5.296;2022-10-24T15:13:13;17.60;76.30
68235;DHT22;55052;52.056;5.296;2022-10-24T15:15:53;17.60;76.40
68235;DHT22;55052;52.056;5.296;2022-10-24T15:18:31;17.60;76.20
68235;DHT22;55052;52.056;5.296;2022-10-24T15:21:05;17.60;76.10
68235;DHT22;55052;52.056;5.296;2022-10-24T15:23:35;17.50;76.10
68235;DHT22;55052;52.056;5.296;2022-10-24T15:26:14;17.50;76.20
68235;DHT22;55052;52.056;5.296;2022-10-24T15:31:40;17.50;75.80
68235;DHT22;55052;52.056;5.296;2022-10-24T15:34:08;17.50;76.10
68235;DHT22;55052;52.056;5.296;2022-10-24T15:36:40;17.50;76.20
68235;DHT22;55052;52.056;5.296;2022-10-24T15:41:37;17.50;76.40
68235;DHT22;55052;52.056;5.296;2022-10-24T15:46:42;17.50;76.50
68235;DHT22;55052;52.056;5.296;2022-10-24T15:49:09;17.50;76.30
68235;DHT22;55052;52.056;5.296;2022-10-24T15:51:37;17.50;76.30
68235;DHT22;55052;52.056;5.296;2022-10-24T15:54:04;17.50;76.30
68235;DHT22;55052;52.056;5.296;2022-10-24T15:56:31;17.50;76.30
68235;DHT22;55052;52.056;5.296;2022-10-24T15:58:58;17.40;76.30
68235;DHT22;55052;52.056;5.296;2022-10-24T16:01:28;17.40;76.30
68235;DHT22;55052;52.056;5.296;2022-10-24T16:03:56;17.40;76.20
68235;DHT22;55052;52.056;5.296;2022-10-24T16:06:24;17.30;76.10
68235;DHT22;55052;52.056;5.296;2022-10-24T16:08:51;17.30;76.20
68235;DHT22;55052;52.056;5.296;2022-10-24T16:11:18;17.30;76.20
68235;DHT22;55052;52.056;5.296;2022-10-24T16:13:45;17.20;76.20
68235;DHT22;55052;52.056;5.296;2022-10-24T16:16:12;17.20;76.20
68235;DHT22;55052;52.056;5.296;2022-10-24T16:18:39;17.20;76.40
68235;DHT22;55052;52.056;5.296;2022-10-24T16:21:06;17.10;76.30
68235;DHT22;55052;52.056;5.296;2022-10-24T16:23:32;17.10;76.30
68235;DHT22;55052;52.056;5.296;2022-10-24T16:25:59;17.10;76.40
68235;DHT22;55052;52.056;5.296;2022-10-24T16:28:26;17.00;76.50
68235;DHT22;55052;52.056;5.296;2022-10-24T16:30:54;17.00;76.50
68235;DHT22;55052;52.056;5.296;2022-10-24T16:33:21;17.00;76.60
68235;DHT22;55052;52.056;5.296;2022-10-24T16:35:48;16.90;76.70
68235;DHT22;55052;52.056;5.296;2022-10-24T16:38:14;16.90;76.80
68235;DHT22;55052;52.056;5.296;2022-10-24T16:40:44;16.90;77.70
68235;DHT22;55052;52.056;5.296;2022-10-24T16:43:14;16.90;76.90
68235;DHT22;55052;52.056;5.296;2022-10-24T16:45:41;16.80;76.90
68235;DHT22;55052;52.056;5.296;2022-10-24T16:48:09;16.80;77.00
68235;DHT22;55052;52.056;5.296;2022-10-24T16:50:40;16.80;77.10
68235;DHT22;55052;52.056;5.296;2022-10-24T16:53:07;16.70;77.10
68235;DHT22;55052;52.056;5.296;2022-10-24T16:55:34;16.70;77.20
68235;DHT22;55052;52.056;5.296;2022-10-24T16:58:01;16.70;77.30
68235;DHT22;55052;52.056;5.296;2022-10-24T17:00:28;16.60;77.30
68235;DHT22;55052;52.056;5.296;2022-10-24T17:02:56;16.60;77.30
68235;DHT22;55052;52.056;5.296;2022-10-24T17:05:26;16.50;77.40
68235;DHT22;55052;52.056;5.296;2022-10-24T17:07:54;16.50;77.50
68235;DHT22;55052;52.056;5.296;2022-10-24T17:10:21;16.40;78.40
68235;DHT22;55052;52.056;5.296;2022-10-24T17:12:50;16.40;77.60
68235;DHT22;55052;52.056;5.296;2022-10-24T17:15:18;16.40;77.80
68235;DHT22;55052;52.056;5.296;2022-10-24T17:17:48;16.30;77.80
68235;DHT22;55052;52.056;5.296;2022-10-24T17:20:16;16.30;77.80
68235;DHT22;55052;52.056;5.296;2022-10-24T17:22:44;16.30;77.80
68235;DHT22;55052;52.056;5.296;2022-10-24T17:25:25;16.20;77.70
68235;DHT22;55052;52.056;5.296;2022-10-24T17:27:53;16.20;77.80
68235;DHT22;55052;52.056;5.296;2022-10-24T17:30:23;16.10;77.90
68235;DHT22;55052;52.056;5.296;2022-10-24T17:32:51;16.10;78.10
68235;DHT22;55052;52.056;5.296;2022-10-24T17:35:20;16.10;78.20
68235;DHT22;55052;52.056;5.296;2022-10-24T17:40:23;15.90;79.10
68235;DHT22;55052;52.056;5.296;2022-10-24T17:42:50;15.90;78.40
68235;DHT22;55052;52.056;5.296;2022-10-24T17:45:20;15.80;78.40
68235;DHT22;55052;52.056;5.296;2022-10-24T17:47:47;15.80;78.40
68235;DHT22;55052;52.056;5.296;2022-10-24T17:50:15;15.80;78.50
68235;DHT22;55052;52.056;5.296;2022-10-24T17:52:43;15.70;78.50
68235;DHT22;55052;52.056;5.296;2022-10-24T17:55:21;15.70;78.60
68235;DHT22;55052;52.056;5.296;2022-10-24T17:58:08;15.70;78.60
68235;DHT22;55052;52.056;5.296;2022-10-24T18:00:35;15.70;78.80
68235;DHT22;55052;52.056;5.296;2022-10-24T18:03:02;15.60;78.80
68235;DHT22;55052;52.056;5.296;2022-10-24T18:05:29;15.60;78.90
68235;DHT22;55052;52.056;5.296;2022-10-24T18:07:57;15.60;79.00